Time;durP1;ratioP1;P1;durP2;ratioP2;P2;SDS_P1;SDS_P2;PMS_P1;PMS_P2;Temp;Humidity;BMP_temperature;BMP_pressure;BME280_temperature;BME280_humidity;BME280_pressure;Samples;Min_cycle;Max_cycle;Signal;HPM_P1;HPM_P2
2023/07/28 00:00:08;;;;;;;4.30;3.53;;;;;;;;;;2048849;29;20039;-93
2023/07/28 00:01:08;;;;;;;4.45;3.15;;;;;;;;;;2040493;29;20058;-92
2023/07/28 00:02:09;;;;;;;4.70;3.67;;;;;;;;;;2040298;29;20019;-93
2023/07/28 00:03:09;;;;;;;4.50;3.92;;;;;;;;;;2040231;29;20039;-92
2023/07/28 00:04:10;;;;;;;6.13;3.85;;;;;;;;;;2040433;29;20534;-92
2023/07/28 00:05:10;;;;;;;5.85;3.75;;;;;;;;;;2032516;29;20075;-92
2023/07/28 00:06:12;;;;;;;4.55;3.80;;;;;;;;;;2033343;29;20567;-96
2023/07/28 00:07:45;;;;;;;4.88;3.25;;;;;;;;;;2041758;29;20108;-95
2023/07/28 00:08:47;;;;;;;3.70;3.40;;;;;;;;;;2018734;29;20060;-96
2023/07/28 00:09:47;;;;;;;3.60;3.30;;;;;;;;;;2028096;29;20066;-92
2023/07/28 00:10:48;;;;;;;4.32;3.55;;;;;;;;;;2040056;29;20467;-91
2023/07/28 00:11:48;;;;;;;6.00;3.42;;;;;;;;;;2040170;29;20499;-93
2023/07/28 00:12:49;;;;;;;4.13;3.65;;;;;;;;;;2040150;29;20032;-93
2023/07/28 00:13:49;;;;;;;3.50;3.10;;;;;;;;;;2039901;29;20410;-92
2023/07/28 00:14:50;;;;;;;6.38;3.70;;;;;;;;;;2040020;29;20055;-92
2023/07/28 00:15:50;;;;;;;3.47;3.20;;;;;;;;;;2039883;29;20123;-92
2023/07/28 00:16:51;;;;;;;4.53;3.45;;;;;;;;;;2039972;29;20035;-91
2023/07/28 00:17:52;;;;;;;4.00;3.28;;;;;;;;;;2040020;29;20028;-94
2023/07/28 00:18:52;;;;;;;4.32;3.67;;;;;;;;;;2040283;29;20384;-92
2023/07/28 00:19:53;;;;;;;5.03;3.80;;;;;;;;;;2040133;29;20040;-92
2023/07/28 00:20:53;;;;;;;4.18;3.15;;;;;;;;;;2040306;29;20059;-93
2023/07/28 00:21:55;;;;;;;4.80;3.70;;;;;;;;;;2040446;29;20087;-92
2023/07/28 00:22:56;;;;;;;3.72;3.33;;;;;;;;;;2042133;29;20511;-92
2023/07/28 00:23:56;;;;;;;4.18;3.78;;;;;;;;;;2034338;29;20134;-92
2023/07/28 00:24:57;;;;;;;5.03;3.50;;;;;;;;;;2032471;29;20172;-92
2023/07/28 00:25:57;;;;;;;3.83;3.17;;;;;;;;;;2032263;29;20047;-92
2023/07/28 00:26:58;;;;;;;5.13;3.72;;;;;;;;;;2032288;29;20028;-92
2023/07/28 00:27:58;;;;;;;3.97;3.20;;;;;;;;;;2032423;29;20048;-92
2023/07/28 00:28:59;;;;;;;4.18;3.70;;;;;;;;;;2032265;29;20110;-92
2023/07/28 00:29:59;;;;;;;4.70;3.33;;;;;;;;;;2040023;29;20546;-93
2023/07/28 00:30:59;;;;;;;4.55;3.80;;;;;;;;;;2039859;29;20075;-92
2023/07/28 00:32:00;;;;;;;4.72;3.75;;;;;;;;;;2032208;29;20139;-92
2023/07/28 00:33:00;;;;;;;3.75;3.45;;;;;;;;;;2035581;29;20068;-92
2023/07/28 00:34:02;;;;;;;3.67;3.33;;;;;;;;;;2040499;29;20055;-90
2023/07/28 00:35:03;;;;;;;4.20;3.22;;;;;;;;;;2045260;29;20504;-92
2023/07/28 00:36:03;;;;;;;3.83;3.42;;;;;;;;;;2032742;29;20139;-91
2023/07/28 00:37:04;;;;;;;4.13;3.72;;;;;;;;;;2037202;29;20024;-91
2023/07/28 00:38:04;;;;;;;4.13;3.45;;;;;;;;;;2043754;29;20023;-91
2023/07/28 00:39:05;;;;;;;3.85;3.35;;;;;;;;;;2042080;29;20480;-93
2023/07/28 00:40:06;;;;;;;4.63;3.85;;;;;;;;;;2032507;29;20095;-92
2023/07/28 00:41:06;;;;;;;4.25;3.75;;;;;;;;;;2032532;29;20091;-92
2023/07/28 00:42:07;;;;;;;4.10;3.70;;;;;;;;;;2032584;29;20028;-93
2023/07/28 00:43:07;;;;;;;3.80;3.50;;;;;;;;;;2040601;29;20109;-93
2023/07/28 00:44:07;;;;;;;4.20;3.70;;;;;;;;;;2040176;29;20035;-92
2023/07/28 00:45:08;;;;;;;4.45;3.60;;;;;;;;;;2040329;29;20511;-92
2023/07/28 00:46:10;;;;;;;5.03;3.42;;;;;;;;;;2040862;29;20119;-96
2023/07/28 00:47:11;;;;;;;3.75;3.45;;;;;;;;;;2043501;29;20095;-96
2023/07/28 00:48:14;;;;;;;4.53;3.70;;;;;;;;;;2047972;28;20063;-96
2023/07/28 00:49:15;;;;;;;3.85;3.50;;;;;;;;;;2043128;29;20036;-95
2023/07/28 00:50:15;;;;;;;4.13;3.70;;;;;;;;;;2050339;28;20004;-96
2023/07/28 00:51:16;;;;;;;3.83;3.53;;;;;;;;;;2050628;28;20086;-96
2023/07/28 00:52:17;;;;;;;3.85;3.50;;;;;;;;;;2050433;28;20089;-96
2023/07/28 00:53:19;;;;;;;5.40;3.72;;;;;;;;;;2035043;29;20088;-96
2023/07/28 00:54:20;;;;;;;4.97;3.72;;;;;;;;;;2034953;29;20043;-96
2023/07/28 00:55:23;;;;;;;3.70;3.40;;;;;;;;;;2036453;29;20453;-96
2023/07/28 00:56:24;;;;;;;6.38;3.75;;;;;;;;;;2040173;29;20038;-92
2023/07/28 00:57:25;;;;;;;4.03;3.72;;;;;;;;;;2040031;29;20039;-92
2023/07/28 00:58:26;;;;;;;6.90;3.88;;;;;;;;;;2039942;29;20032;-92
2023/07/28 00:59:27;;;;;;;4.22;3.90;;;;;;;;;;2031988;29;20370;-92
2023/07/28 01:00:27;;;;;;;4.15;3.50;;;;;;;;;;2024428;29;20037;-92
2023/07/28 01:01:27;;;;;;;5.82;3.78;;;;;;;;;;2032110;29;20028;-92
2023/07/28 01:02:28;;;;;;;4.05;3.50;;;;;;;;;;2032033;29;20025;-91
2023/07/28 01:03:29;;;;;;;7.10;3.80;;;;;;;;;;2024209;29;20501;-92
2023/07/28 01:04:30;;;;;;;4.22;3.50;;;;;;;;;;2032361;29;20034;-92
2023/07/28 01:05:54;;;;;;;4.18;3.75;;;;;;;;;;2032181;29;20028;-92
2023/07/28 01:07:07;;;;;;;5.28;3.58;;;;;;;;;;2035279;29;20067;-92
2023/07/28 01:08:27;;;;;;;4.35;3.95;;;;;;;;;;2032059;29;20028;-92
2023/07/28 01:09:37;;;;;;;4.22;3.80;;;;;;;;;;2032122;29;20032;-92
2023/07/28 01:10:39;;;;;;;6.20;3.88;;;;;;;;;;2033419;29;20125;-92
2023/07/28 01:11:52;;;;;;;5.65;3.85;;;;;;;;;;2032046;29;20066;-92
2023/07/28 01:12:53;;;;;;;5.63;3.60;;;;;;;;;;2026078;29;20486;-92
2023/07/28 01:13:53;;;;;;;4.05;3.75;;;;;;;;;;2024418;29;20029;-92
2023/07/28 01:14:54;;;;;;;4.35;4.00;;;;;;;;;;2024269;29;20021;-93
2023/07/28 01:15:54;;;;;;;4.03;3.63;;;;;;;;;;2024308;29;20119;-92
2023/07/28 01:16:55;;;;;;;5.40;3.42;;;;;;;;;;2024130;29;20028;-92
2023/07/28 01:17:55;;;;;;;4.63;4.03;;;;;;;;;;2024048;29;20024;-92
2023/07/28 01:18:56;;;;;;;4.38;3.65;;;;;;;;;;2032081;29;20044;-92
2023/07/28 01:19:56;;;;;;;4.53;4.13;;;;;;;;;;2045027;29;20032;-92
2023/07/28 01:20:59;;;;;;;4.93;4.07;;;;;;;;;;2039950;29;20031;-89
2023/07/28 01:22:18;;;;;;;4.65;4.15;;;;;;;;;;2032518;29;20031;-92
2023/07/28 01:23:48;;;;;;;4.40;4.00;;;;;;;;;;2026597;29;20031;-92
2023/07/28 01:24:50;;;;;;;5.05;4.18;;;;;;;;;;2027984;29;20032;-92
2023/07/28 01:26:10;;;;;;;4.53;4.13;;;;;;;;;;2032309;29;20058;-92
2023/07/28 01:27:10;;;;;;;4.60;4.20;;;;;;;;;;2027160;29;20025;-92
2023/07/28 01:28:12;;;;;;;4.97;4.45;;;;;;;;;;2024669;29;20116;-93
2023/07/28 01:29:15;;;;;;;5.05;4.40;;;;;;;;;;2026005;29;20036;-92
2023/07/28 01:30:15;;;;;;;5.00;4.40;;;;;;;;;;2033162;29;20107;-93
2023/07/28 01:31:16;;;;;;;5.80;4.30;;;;;;;;;;2034174;29;20103;-92
2023/07/28 01:32:16;;;;;;;4.68;4.28;;;;;;;;;;2032348;29;20020;-92
2023/07/28 01:33:17;;;;;;;5.03;4.30;;;;;;;;;;2032386;29;20429;-92
2023/07/28 01:34:17;;;;;;;5.05;4.55;;;;;;;;;;2024649;29;20024;-93
2023/07/28 01:35:18;;;;;;;6.25;5.20;;;;;;;;;;2032362;29;20028;-93
2023/07/28 01:36:18;;;;;;;9.70;4.65;;;;;;;;;;2032178;29;20024;-93
2023/07/28 01:37:19;;;;;;;4.97;4.47;;;;;;;;;;2033412;29;20032;-93
2023/07/28 01:38:19;;;;;;;4.70;4.30;;;;;;;;;;2024726;29;20031;-93
2023/07/28 01:39:19;;;;;;;6.72;5.03;;;;;;;;;;2024673;29;20025;-92
2023/07/28 01:40:20;;;;;;;6.85;4.38;;;;;;;;;;2032691;29;20032;-93
2023/07/28 01:41:20;;;;;;;8.48;5.20;;;;;;;;;;2036514;29;20016;-93
2023/07/28 01:42:21;;;;;;;5.47;4.47;;;;;;;;;;2036783;29;20047;-91
2023/07/28 01:43:21;;;;;;;7.38;4.55;;;;;;;;;;2029288;29;20051;-91
2023/07/28 01:44:22;;;;;;;6.38;4.28;;;;;;;;;;2037431;29;20032;-91
2023/07/28 01:45:22;;;;;;;9.43;4.30;;;;;;;;;;2027579;29;20033;-92
2023/07/28 01:46:23;;;;;;;9.48;4.70;;;;;;;;;;2032946;29;20198;-92
2023/07/28 01:47:25;;;;;;;6.47;4.70;;;;;;;;;;2032743;29;20031;-92
2023/07/28 01:48:26;;;;;;;9.23;5.28;;;;;;;;;;2024513;29;20430;-92
2023/07/28 01:49:26;;;;;;;5.70;4.40;;;;;;;;;;2032264;29;20032;-93
2023/07/28 01:50:27;;;;;;;6.18;5.55;;;;;;;;;;2040288;29;20464;-92
2023/07/28 01:51:27;;;;;;;5.70;4.55;;;;;;;;;;2031868;29;20488;-91
2023/07/28 01:52:28;;;;;;;5.72;4.43;;;;;;;;;;2032004;29;20040;-93
2023/07/28 01:53:28;;;;;;;8.73;4.72;;;;;;;;;;2039859;29;20024;-92
2023/07/28 01:54:28;;;;;;;7.57;4.88;;;;;;;;;;2032140;29;20469;-92
2023/07/28 01:55:29;;;;;;;6.00;4.88;;;;;;;;;;2023996;29;20031;-92
2023/07/28 01:56:29;;;;;;;9.18;5.20;;;;;;;;;;2032095;29;20065;-92
2023/07/28 01:57:33;;;;;;;8.15;4.63;;;;;;;;;;2031765;29;20028;-93
2023/07/28 01:58:34;;;;;;;6.25;5.10;;;;;;;;;;2032453;29;20444;-94
2023/07/28 01:59:34;;;;;;;5.22;4.63;;;;;;;;;;2031901;29;20035;-93
2023/07/28 02:00:35;;;;;;;8.85;5.15;;;;;;;;;;2032000;29;20039;-94
2023/07/28 02:01:36;;;;;;;6.53;4.70;;;;;;;;;;2040860;29;20020;-94
2023/07/28 02:02:36;;;;;;;5.93;4.97;;;;;;;;;;2041013;29;20551;-92
2023/07/28 02:03:36;;;;;;;7.60;4.88;;;;;;;;;;2031974;29;20028;-93
2023/07/28 02:04:37;;;;;;;6.80;4.82;;;;;;;;;;2025212;29;20034;-93
2023/07/28 02:05:37;;;;;;;5.68;5.18;;;;;;;;;;2025529;29;20088;-92
2023/07/28 02:06:38;;;;;;;5.32;4.82;;;;;;;;;;2032567;29;20032;-93
2023/07/28 02:07:43;;;;;;;6.38;5.03;;;;;;;;;;2043021;29;20012;-93
2023/07/28 02:08:43;;;;;;;5.18;4.68;;;;;;;;;;2042005;29;20455;-91
2023/07/28 02:09:44;;;;;;;5.82;5.07;;;;;;;;;;2041189;29;20051;-92
2023/07/28 02:10:45;;;;;;;4.85;4.45;;;;;;;;;;2033184;29;20091;-91
2023/07/28 02:11:45;;;;;;;5.30;4.80;;;;;;;;;;2025332;29;20121;-92
2023/07/28 02:12:45;;;;;;;5.35;4.85;;;;;;;;;;2033454;29;20031;-93
2023/07/28 02:13:46;;;;;;;5.65;5.10;;;;;;;;;;2041926;29;20559;-92
2023/07/28 02:14:47;;;;;;;7.70;5.25;;;;;;;;;;2033524;29;20488;-92
2023/07/28 02:15:47;;;;;;;5.68;4.82;;;;;;;;;;2033449;29;20055;-92
2023/07/28 02:16:47;;;;;;;5.38;4.88;;;;;;;;;;2033365;29;20448;-92
2023/07/28 02:17:49;;;;;;;7.57;5.30;;;;;;;;;;2033389;29;20504;-92
2023/07/28 02:18:49;;;;;;;5.68;5.18;;;;;;;;;;2033418;29;20080;-92
2023/07/28 02:19:49;;;;;;;6.72;5.38;;;;;;;;;;2041882;29;20372;-92
2023/07/28 02:20:50;;;;;;;5.40;4.72;;;;;;;;;;2041662;29;20488;-92
2023/07/28 02:21:51;;;;;;;6.38;4.82;;;;;;;;;;2042124;29;20047;-93
2023/07/28 02:22:51;;;;;;;6.13;5.43;;;;;;;;;;2041926;29;20028;-93
2023/07/28 02:23:52;;;;;;;5.53;5.03;;;;;;;;;;2033429;29;20414;-93
2023/07/28 02:24:52;;;;;;;5.65;5.07;;;;;;;;;;2025702;29;20043;-92
2023/07/28 02:25:54;;;;;;;5.28;4.88;;;;;;;;;;2033828;29;20024;-92
2023/07/28 02:26:54;;;;;;;5.70;5.10;;;;;;;;;;2041041;29;20154;-92
2023/07/28 02:27:55;;;;;;;5.30;4.80;;;;;;;;;;2033284;29;20488;-92
2023/07/28 02:28:55;;;;;;;6.00;5.50;;;;;;;;;;2033164;29;20028;-92
2023/07/28 02:29:55;;;;;;;7.00;5.03;;;;;;;;;;2033194;29;20501;-92
2023/07/28 02:30:56;;;;;;;5.25;4.80;;;;;;;;;;2025238;29;20417;-92
2023/07/28 02:31:56;;;;;;;5.60;5.10;;;;;;;;;;2033093;29;20059;-92
2023/07/28 02:32:57;;;;;;;5.47;5.00;;;;;;;;;;2041585;29;20103;-91
2023/07/28 02:33:57;;;;;;;5.32;4.88;;;;;;;;;;2032973;29;20053;-91
2023/07/28 02:34:58;;;;;;;6.53;5.18;;;;;;;;;;2033246;29;20063;-91
2023/07/28 02:35:58;;;;;;;6.70;5.03;;;;;;;;;;2033154;29;20048;-92
2023/07/28 02:36:59;;;;;;;6.18;5.07;;;;;;;;;;2030376;29;20081;-91
2023/07/28 02:37:59;;;;;;;5.88;5.25;;;;;;;;;;2025261;29;20462;-92
2023/07/28 02:38:59;;;;;;;5.75;5.15;;;;;;;;;;2033220;29;20091;-92
2023/07/28 02:40:00;;;;;;;6.32;5.75;;;;;;;;;;2033020;29;20027;-92
2023/07/28 02:41:03;;;;;;;5.60;5.10;;;;;;;;;;2025434;29;20025;-92
2023/07/28 02:42:03;;;;;;;6.32;5.70;;;;;;;;;;2025785;29;20040;-90
2023/07/28 02:43:04;;;;;;;5.90;5.32;;;;;;;;;;2033528;29;20020;-91
2023/07/28 02:44:04;;;;;;;5.72;5.22;;;;;;;;;;2033215;29;20080;-91
2023/07/28 02:45:05;;;;;;;6.22;5.07;;;;;;;;;;2025530;29;20020;-92
2023/07/28 02:46:05;;;;;;;5.18;4.78;;;;;;;;;;2033171;29;20024;-92
2023/07/28 02:47:06;;;;;;;7.05;5.63;;;;;;;;;;2033172;29;20047;-91
2023/07/28 02:48:06;;;;;;;5.93;5.25;;;;;;;;;;2025346;29;20690;-92
2023/07/28 02:49:07;;;;;;;6.43;5.80;;;;;;;;;;2025365;29;20245;-94
2023/07/28 02:50:08;;;;;;;6.45;5.50;;;;;;;;;;2025329;29;20036;-91
2023/07/28 02:51:08;;;;;;;5.82;5.22;;;;;;;;;;2025257;29;20028;-92
2023/07/28 02:52:09;;;;;;;5.93;5.35;;;;;;;;;;2025305;29;20032;-92
2023/07/28 02:53:09;;;;;;;5.90;5.40;;;;;;;;;;2039271;29;20084;-92
2023/07/28 02:54:10;;;;;;;6.07;5.50;;;;;;;;;;2043612;29;20028;-91
2023/07/28 02:55:10;;;;;;;6.07;5.47;;;;;;;;;;2036826;29;20052;-92
2023/07/28 02:56:11;;;;;;;6.25;5.65;;;;;;;;;;2035246;29;20023;-92
2023/07/28 02:57:11;;;;;;;6.00;5.40;;;;;;;;;;2028324;29;20008;-91
2023/07/28 02:58:12;;;;;;;7.05;5.32;;;;;;;;;;2026858;29;20024;-92
2023/07/28 02:59:14;;;;;;;8.18;5.70;;;;;;;;;;2036693;29;20505;-92
2023/07/28 03:00:14;;;;;;;6.38;5.75;;;;;;;;;;2036545;29;20438;-92
2023/07/28 03:01:15;;;;;;;6.20;5.60;;;;;;;;;;2044984;29;20071;-92
2023/07/28 03:02:15;;;;;;;5.57;5.07;;;;;;;;;;2044408;29;20037;-92
2023/07/28 03:03:16;;;;;;;6.03;5.40;;;;;;;;;;2043217;29;20019;-91
2023/07/28 03:04:16;;;;;;;6.60;5.50;;;;;;;;;;2035771;29;20158;-92
2023/07/28 03:05:17;;;;;;;6.20;5.65;;;;;;;;;;2035470;29;20016;-93
2023/07/28 03:06:17;;;;;;;6.40;5.80;;;;;;;;;;2035067;29;20070;-92
2023/07/28 03:07:18;;;;;;;6.80;5.70;;;;;;;;;;2025380;29;20035;-92
2023/07/28 03:08:18;;;;;;;9.70;6.05;;;;;;;;;;2033055;29;20016;-92
2023/07/28 03:09:18;;;;;;;7.78;5.68;;;;;;;;;;2033131;29;20048;-92
2023/07/28 03:10:19;;;;;;;5.70;5.13;;;;;;;;;;2033182;29;20095;-93
2023/07/28 03:11:20;;;;;;;5.95;5.40;;;;;;;;;;2032830;29;20067;-93
2023/07/28 03:12:20;;;;;;;8.48;5.55;;;;;;;;;;2041441;29;20432;-93
2023/07/28 03:13:21;;;;;;;9.15;6.07;;;;;;;;;;2032854;29;20024;-93
2023/07/28 03:14:21;;;;;;;5.90;5.40;;;;;;;;;;2032987;29;20484;-93
2023/07/28 03:15:22;;;;;;;6.25;5.45;;;;;;;;;;2040725;29;20020;-93
2023/07/28 03:16:22;;;;;;;8.38;5.78;;;;;;;;;;2040910;29;20020;-93
2023/07/28 03:17:23;;;;;;;6.80;5.88;;;;;;;;;;2033076;29;20472;-93
2023/07/28 03:18:23;;;;;;;8.23;5.88;;;;;;;;;;2025605;29;20050;-92
2023/07/28 03:19:24;;;;;;;6.95;6.10;;;;;;;;;;2025157;29;20032;-93
2023/07/28 03:20:24;;;;;;;5.90;5.38;;;;;;;;;;2032878;29;20119;-93
2023/07/28 03:21:25;;;;;;;6.00;5.43;;;;;;;;;;2025080;29;20032;-92
2023/07/28 03:22:25;;;;;;;8.20;5.50;;;;;;;;;;2032967;29;20035;-93
2023/07/28 03:23:25;;;;;;;7.05;5.75;;;;;;;;;;2032870;29;20024;-93
2023/07/28 03:24:26;;;;;;;7.53;5.78;;;;;;;;;;2025093;29;20030;-93
2023/07/28 03:25:26;;;;;;;6.53;5.68;;;;;;;;;;2024937;29;20199;-92
2023/07/28 03:26:27;;;;;;;5.70;5.20;;;;;;;;;;2025247;29;20036;-93
2023/07/28 03:27:27;;;;;;;7.60;5.00;;;;;;;;;;2025328;29;20066;-92
2023/07/28 03:28:28;;;;;;;5.85;5.35;;;;;;;;;;2025405;29;20545;-92
2023/07/28 03:29:28;;;;;;;5.95;5.35;;;;;;;;;;2025534;29;20032;-92
2023/07/28 03:30:29;;;;;;;6.32;5.75;;;;;;;;;;2033165;29;20333;-93
2023/07/28 03:31:29;;;;;;;5.93;5.32;;;;;;;;;;2032753;29;20024;-93
2023/07/28 03:32:30;;;;;;;7.97;5.20;;;;;;;;;;2025125;29;20571;-93
2023/07/28 03:33:30;;;;;;;7.40;6.10;;;;;;;;;;2032965;29;20024;-93
2023/07/28 03:34:31;;;;;;;5.70;5.20;;;;;;;;;;2024878;29;20155;-92
2023/07/28 03:35:31;;;;;;;5.68;5.13;;;;;;;;;;2024991;29;20025;-92
2023/07/28 03:36:33;;;;;;;5.75;5.00;;;;;;;;;;2025811;29;20031;-96
2023/07/28 03:37:33;;;;;;;5.90;5.40;;;;;;;;;;2032988;29;20024;-93
2023/07/28 03:38:34;;;;;;;5.72;5.22;;;;;;;;;;2032798;29;20036;-92
2023/07/28 03:39:35;;;;;;;6.25;5.20;;;;;;;;;;2025471;29;20036;-92
2023/07/28 03:40:36;;;;;;;6.10;5.50;;;;;;;;;;2041513;29;20387;-92
2023/07/28 03:41:36;;;;;;;6.28;5.63;;;;;;;;;;2041889;29;20027;-92
2023/07/28 03:42:37;;;;;;;6.68;5.45;;;;;;;;;;2024937;29;20104;-93
2023/07/28 03:43:38;;;;;;;7.57;5.68;;;;;;;;;;2028123;29;20424;-92
2023/07/28 03:44:40;;;;;;;5.78;5.28;;;;;;;;;;2048418;29;20137;-92
2023/07/28 03:45:40;;;;;;;6.45;5.60;;;;;;;;;;2040638;29;20061;-92
2023/07/28 03:46:40;;;;;;;6.32;5.45;;;;;;;;;;2040917;29;20032;-93
2023/07/28 03:47:41;;;;;;;6.30;5.70;;;;;;;;;;2033123;29;20060;-93
2023/07/28 03:48:41;;;;;;;7.22;5.45;;;;;;;;;;2033147;29;20034;-92
2023/07/28 03:49:42;;;;;;;5.82;5.20;;;;;;;;;;2042110;29;20024;-93
2023/07/28 03:50:42;;;;;;;7.55;5.60;;;;;;;;;;2048283;29;20070;-92
2023/07/28 03:51:43;;;;;;;8.07;5.85;;;;;;;;;;2040333;29;20105;-92
2023/07/28 03:52:43;;;;;;;6.65;5.35;;;;;;;;;;2040187;29;20377;-92
2023/07/28 03:53:43;;;;;;;7.40;5.47;;;;;;;;;;2040637;29;20174;-92
2023/07/28 03:54:44;;;;;;;7.88;5.72;;;;;;;;;;2032765;29;20025;-92
2023/07/28 03:55:44;;;;;;;8.82;5.60;;;;;;;;;;2032690;29;20032;-91
2023/07/28 03:56:45;;;;;;;6.36;5.76;;;;;;;;;;1697237;29;10081939;-93
2023/07/28 03:57:45;;;;;;;6.03;5.40;;;;;;;;;;2040668;29;20083;-90
2023/07/28 03:58:45;;;;;;;6.20;5.60;;;;;;;;;;2040540;29;20443;-93
2023/07/28 03:59:46;;;;;;;7.70;5.38;;;;;;;;;;2040299;29;20526;-93
2023/07/28 04:00:46;;;;;;;8.43;6.07;;;;;;;;;;2040647;29;20094;-92
2023/07/28 04:01:47;;;;;;;6.53;5.63;;;;;;;;;;2048647;29;20042;-93
2023/07/28 04:02:48;;;;;;;6.38;5.47;;;;;;;;;;2041559;29;20027;-92
2023/07/28 04:03:48;;;;;;;8.77;5.90;;;;;;;;;;2040498;29;20490;-94
2023/07/28 04:04:54;;;;;;;9.30;5.65;;;;;;;;;;2040195;29;20028;-93
2023/07/28 04:05:55;;;;;;;5.60;5.10;;;;;;;;;;2033124;29;20032;-92
2023/07/28 04:06:55;;;;;;;6.85;6.18;;;;;;;;;;2040255;29;20031;-93
2023/07/28 04:07:56;;;;;;;6.82;6.15;;;;;;;;;;2040460;29;20139;-93
2023/07/28 04:08:56;;;;;;;6.93;5.45;;;;;;;;;;2040381;29;20522;-93
2023/07/28 04:09:58;;;;;;;6.22;5.70;;;;;;;;;;2040328;29;20058;-93
2023/07/28 04:10:58;;;;;;;6.88;6.22;;;;;;;;;;2040106;29;20036;-91
2023/07/28 04:11:59;;;;;;;6.55;5.75;;;;;;;;;;2032527;29;20036;-91
2023/07/28 04:12:59;;;;;;;7.45;6.00;;;;;;;;;;2040430;29;20027;-92
2023/07/28 04:14:00;;;;;;;7.28;6.10;;;;;;;;;;2040324;29;20079;-91
2023/07/28 04:15:00;;;;;;;7.95;5.93;;;;;;;;;;2032448;29;20472;-91
2023/07/28 04:16:01;;;;;;;6.47;5.82;;;;;;;;;;2040192;29;20024;-93
2023/07/28 04:17:02;;;;;;;6.10;5.50;;;;;;;;;;2040229;29;20067;-94
2023/07/28 04:18:02;;;;;;;6.40;5.80;;;;;;;;;;2040559;29;20028;-94
2023/07/28 04:19:03;;;;;;;6.07;5.50;;;;;;;;;;2032505;29;20536;-93
2023/07/28 04:20:05;;;;;;;7.25;6.55;;;;;;;;;;2040260;29;20031;-93
2023/07/28 04:21:05;;;;;;;8.70;6.50;;;;;;;;;;2040301;29;20015;-92
2023/07/28 04:22:07;;;;;;;6.40;5.80;;;;;;;;;;2048146;29;20019;-93
2023/07/28 04:23:07;;;;;;;6.50;5.90;;;;;;;;;;2040420;29;20031;-92
2023/07/28 04:24:09;;;;;;;6.57;5.97;;;;;;;;;;2040181;29;20484;-93
2023/07/28 04:25:09;;;;;;;7.05;5.93;;;;;;;;;;2040273;29;20024;-94
2023/07/28 04:26:10;;;;;;;6.40;5.75;;;;;;;;;;2040149;29;20098;-93
2023/07/28 04:27:10;;;;;;;7.18;6.10;;;;;;;;;;2045684;29;20023;-93
2023/07/28 04:28:10;;;;;;;7.10;6.50;;;;;;;;;;2050311;29;20030;-91
2023/07/28 04:29:11;;;;;;;7.88;6.60;;;;;;;;;;2049637;29;20099;-94
2023/07/28 04:30:20;;;;;;;9.77;5.95;;;;;;;;;;2049650;28;20028;-93
2023/07/28 04:31:21;;;;;;;6.88;6.18;;;;;;;;;;2040422;29;20417;-93
2023/07/28 04:32:21;;;;;;;6.93;6.20;;;;;;;;;;2040377;29;20022;-94
2023/07/28 04:33:22;;;;;;;6.82;6.13;;;;;;;;;;2048214;29;20019;-92
2023/07/28 04:34:22;;;;;;;9.63;6.97;;;;;;;;;;2040392;29;20051;-93
2023/07/28 04:35:23;;;;;;;6.60;6.00;;;;;;;;;;2040249;29;20031;-93
2023/07/28 04:36:23;;;;;;;6.00;5.45;;;;;;;;;;2040301;29;20419;-92
2023/07/28 04:37:23;;;;;;;7.55;5.68;;;;;;;;;;2040316;29;20531;-93
2023/07/28 04:38:24;;;;;;;6.43;5.30;;;;;;;;;;2040476;29;20464;-94
2023/07/28 04:39:24;;;;;;;7.10;5.00;;;;;;;;;;2040548;29;20322;-92
2023/07/28 04:40:25;;;;;;;6.07;5.47;;;;;;;;;;2040501;29;20570;-93
2023/07/28 04:41:25;;;;;;;6.22;4.70;;;;;;;;;;2040213;29;20024;-92
2023/07/28 04:42:25;;;;;;;7.65;6.45;;;;;;;;;;2032535;29;20030;-93
2023/07/28 04:43:26;;;;;;;6.65;4.88;;;;;;;;;;2040246;29;20114;-92
2023/07/28 04:44:26;;;;;;;7.43;5.15;;;;;;;;;;2040332;29;20456;-93
2023/07/28 04:45:27;;;;;;;5.63;4.80;;;;;;;;;;2040300;29;20031;-93
2023/07/28 04:46:27;;;;;;;5.05;4.55;;;;;;;;;;2040255;29;20023;-93
2023/07/28 04:47:28;;;;;;;4.72;4.32;;;;;;;;;;2039973;29;20039;-93
2023/07/28 04:48:28;;;;;;;4.63;4.22;;;;;;;;;;2032203;29;20028;-93
2023/07/28 04:49:28;;;;;;;5.53;4.00;;;;;;;;;;2032026;29;20451;-93
2023/07/28 04:50:54;;;;;;;4.82;4.05;;;;;;;;;;2040039;29;20106;-93
2023/07/28 04:51:54;;;;;;;4.65;4.15;;;;;;;;;;2040256;29;20159;-93
2023/07/28 04:52:58;;;;;;;5.45;4.20;;;;;;;;;;2039986;29;20487;-93
2023/07/28 04:53:58;;;;;;;4.10;3.70;;;;;;;;;;2039903;29;20146;-93
2023/07/28 04:54:58;;;;;;;4.95;4.20;;;;;;;;;;2040018;29;20051;-94
2023/07/28 04:55:59;;;;;;;4.05;3.50;;;;;;;;;;2040492;29;20023;-94
2023/07/28 04:56:59;;;;;;;4.60;3.83;;;;;;;;;;2039765;29;20464;-94
2023/07/28 04:58:00;;;;;;;3.97;3.50;;;;;;;;;;2039958;29;20054;-94
2023/07/28 04:59:00;;;;;;;4.60;3.67;;;;;;;;;;2039798;29;20031;-94
2023/07/28 05:00:00;;;;;;;6.22;3.85;;;;;;;;;;2039806;29;20034;-94
2023/07/28 05:01:02;;;;;;;6.00;3.38;;;;;;;;;;2039913;29;20028;-94
2023/07/28 05:02:03;;;;;;;7.38;3.50;;;;;;;;;;2039796;29;20487;-94
2023/07/28 05:03:03;;;;;;;4.97;3.70;;;;;;;;;;2039887;29;20039;-94
2023/07/28 05:04:04;;;;;;;4.32;3.25;;;;;;;;;;2047755;29;20162;-94
2023/07/28 05:05:10;;;;;;;5.35;3.30;;;;;;;;;;2047978;29;20117;-93
2023/07/28 05:06:10;;;;;;;4.05;3.30;;;;;;;;;;2039680;29;20031;-93
2023/07/28 05:07:10;;;;;;;3.67;3.38;;;;;;;;;;2039902;29;20023;-94
2023/07/28 05:08:11;;;;;;;4.03;3.17;;;;;;;;;;2040733;29;20036;-93
2023/07/28 05:09:11;;;;;;;4.72;3.28;;;;;;;;;;2039822;29;20035;-93
2023/07/28 05:10:12;;;;;;;6.78;3.10;;;;;;;;;;2039866;29;20055;-93
2023/07/28 05:11:12;;;;;;;4.03;3.03;;;;;;;;;;2048010;29;20529;-93
2023/07/28 05:12:13;;;;;;;5.10;3.47;;;;;;;;;;2040167;29;20066;-93
2023/07/28 05:13:13;;;;;;;6.28;3.20;;;;;;;;;;2040413;29;20020;-93
2023/07/28 05:14:14;;;;;;;4.28;3.10;;;;;;;;;;2054891;29;20055;-92
2023/07/28 05:15:15;;;;;;;4.22;3.28;;;;;;;;;;2047647;29;20098;-94
2023/07/28 05:16:15;;;;;;;4.32;3.35;;;;;;;;;;2031826;29;20020;-94
2023/07/28 05:17:16;;;;;;;3.35;3.00;;;;;;;;;;2031988;29;20020;-94
2023/07/28 05:18:16;;;;;;;4.10;3.28;;;;;;;;;;2032190;29;20051;-93
2023/07/28 05:19:17;;;;;;;4.35;3.33;;;;;;;;;;2031922;29;20114;-93
2023/07/28 05:20:17;;;;;;;3.58;3.08;;;;;;;;;;2032305;29;20147;-94
2023/07/28 05:21:17;;;;;;;6.43;3.35;;;;;;;;;;2040070;29;20047;-94
2023/07/28 05:22:18;;;;;;;8.30;3.05;;;;;;;;;;2040347;29;20342;-94
2023/07/28 05:23:19;;;;;;;3.25;2.92;;;;;;;;;;2032000;29;20413;-93
2023/07/28 05:24:19;;;;;;;6.93;3.08;;;;;;;;;;2040055;29;20030;-93
2023/07/28 05:25:20;;;;;;;3.85;3.17;;;;;;;;;;2047743;29;20114;-94
2023/07/28 05:26:20;;;;;;;3.67;3.13;;;;;;;;;;1698971;29;10001326;-92
2023/07/28 05:27:21;;;;;;;4.55;3.22;;;;;;;;;;2032160;29;20026;-93
2023/07/28 05:28:21;;;;;;;5.55;3.10;;;;;;;;;;2031986;29;20079;-94
2023/07/28 05:29:22;;;;;;;4.65;3.15;;;;;;;;;;2039983;29;20023;-93
2023/07/28 05:30:22;;;;;;;3.97;3.28;;;;;;;;;;2039901;29;20030;-94
2023/07/28 05:31:22;;;;;;;5.68;3.40;;;;;;;;;;2040425;29;20159;-94
2023/07/28 05:32:23;;;;;;;5.32;3.45;;;;;;;;;;2040698;29;20083;-93
2023/07/28 05:33:23;;;;;;;4.82;3.38;;;;;;;;;;2040258;29;20404;-94
2023/07/28 05:34:24;;;;;;;5.80;3.58;;;;;;;;;;2040335;29;20039;-94
2023/07/28 05:37:04;;;;;;;6.07;3.78;;;;;;;;;;2048667;28;20024;-94
2023/07/28 05:38:05;;;;;;;5.45;3.78;;;;;;;;;;2040577;29;20045;-94
2023/07/28 05:39:05;;;;;;;4.82;3.50;;;;;;;;;;2039869;29;20115;-93
2023/07/28 05:40:06;;;;;;;5.30;3.67;;;;;;;;;;2041529;29;20023;-94
2023/07/28 05:41:07;;;;;;;6.05;3.50;;;;;;;;;;2041490;29;20078;-94
2023/07/28 05:42:07;;;;;;;5.32;3.00;;;;;;;;;;2041298;29;20420;-94
2023/07/28 05:43:08;;;;;;;3.53;3.20;;;;;;;;;;2041329;29;20364;-93
2023/07/28 05:44:08;;;;;;;7.65;3.88;;;;;;;;;;2041174;29;20059;-93
2023/07/28 05:45:09;;;;;;;4.82;3.60;;;;;;;;;;2041509;29;20039;-94
2023/07/28 05:46:09;;;;;;;3.83;3.38;;;;;;;;;;2042041;29;20129;-94
2023/07/28 05:47:10;;;;;;;5.95;3.60;;;;;;;;;;2041216;29;20172;-93
2023/07/28 05:48:10;;;;;;;4.38;3.25;;;;;;;;;;2041227;29;20016;-94
2023/07/28 05:49:11;;;;;;;5.45;3.42;;;;;;;;;;2041607;29;20558;-94
2023/07/28 05:50:11;;;;;;;3.63;3.20;;;;;;;;;;2041465;29;20020;-94
2023/07/28 05:51:11;;;;;;;8.73;3.92;;;;;;;;;;2041459;29;20412;-93
2023/07/28 05:52:12;;;;;;;5.30;3.38;;;;;;;;;;2041211;29;20185;-94
2023/07/28 05:53:13;;;;;;;10.15;3.60;;;;;;;;;;2033467;29;20020;-94
2023/07/28 05:54:16;;;;;;;6.03;3.20;;;;;;;;;;2041157;29;20111;-93
2023/07/28 05:55:17;;;;;;;3.95;3.35;;;;;;;;;;2049157;29;20023;-94
2023/07/28 05:56:20;;;;;;;5.07;3.22;;;;;;;;;;2041507;29;20046;-94
2023/07/28 05:57:20;;;;;;;7.40;3.08;;;;;;;;;;2041395;29;20103;-94
2023/07/28 05:58:21;;;;;;;5.53;3.50;;;;;;;;;;2041122;29;20408;-94
2023/07/28 05:59:22;;;;;;;4.32;2.95;;;;;;;;;;2041338;29;20415;-95
2023/07/28 06:00:22;;;;;;;5.85;3.15;;;;;;;;;;2042490;29;20066;-93
2023/07/28 06:01:25;;;;;;;5.25;3.22;;;;;;;;;;2046332;29;20499;-89
2023/07/28 06:02:25;;;;;;;3.25;2.38;;;;;;;;;;2044705;29;20032;-92
2023/07/28 06:03:26;;;;;;;3.58;2.28;;;;;;;;;;2033459;29;20512;-93
2023/07/28 06:04:26;;;;;;;6.28;2.70;;;;;;;;;;2033443;29;20063;-93
2023/07/28 06:05:27;;;;;;;6.25;2.45;;;;;;;;;;2033369;29;20476;-92
2023/07/28 06:06:27;;;;;;;2.47;2.28;;;;;;;;;;2041094;29;20427;-93
2023/07/28 06:07:28;;;;;;;3.35;2.78;;;;;;;;;;2033609;29;20032;-93
2023/07/28 06:08:28;;;;;;;3.30;2.30;;;;;;;;;;2034707;29;20056;-93